RYR2L LFSB-EIDW
Flight info
| Callsign | RYR2L |
|---|---|
| Flight time | 2h 5m |
| Altitude | 34000 |
| Route | TORPA T10 ROBIR DCT REKLA DCT RLP DCT ROTSI DCT KOTUN DCT AMAXA DCT VESAN DCT RATUK DCT SOVAT DCT LESTA UP6 RODOL UL28 LELDO M145 BAGSO BAGSO4L |
| Aircraft | B738/M-SDE2E3FGHIRWXY/LB1 |
Departure
| Time | 2026-05-05 14:25 |
|---|---|
| Airport | EuroAirport Basel–Mulhouse–Freiburg (LFSB) |
Arrival
| Time | 2026-05-05 16:31 |
|---|---|
| Airport | Dublin Airport (EIDW) |
| Time | Latitude | Longitude | Altitude | Speed | Heading |
|---|---|---|---|---|---|
| 2026-05-05 13:51 | 47.59893 | 7.52760 | 903 ft | 0 kts | 115° |
| 2026-05-05 14:18 | 47.59893 | 7.52761 | 908 ft | 0 kts | 115° |
| 2026-05-05 14:18 | 47.59889 | 7.52762 | 908 ft | 1 kts | 152° |
| 2026-05-05 14:18 | 47.59883 | 7.52757 | 905 ft | 2 kts | 204° |
| 2026-05-05 14:19 | 47.59865 | 7.52729 | 906 ft | 5 kts | 229° |
| 2026-05-05 14:19 | 47.59843 | 7.52673 | 906 ft | 6 kts | 245° |
| 2026-05-05 14:19 | 47.59801 | 7.52653 | 906 ft | 8 kts | 167° |
| 2026-05-05 14:19 | 47.59746 | 7.52690 | 906 ft | 10 kts | 155° |
| 2026-05-05 14:20 | 47.59678 | 7.52736 | 906 ft | 12 kts | 155° |
| 2026-05-05 14:20 | 47.59599 | 7.52792 | 906 ft | 13 kts | 155° |
| 2026-05-05 14:20 | 47.59509 | 7.52854 | 906 ft | 15 kts | 154° |
| 2026-05-05 14:20 | 47.59411 | 7.52922 | 906 ft | 16 kts | 155° |
| 2026-05-05 14:21 | 47.59306 | 7.52995 | 907 ft | 16 kts | 154° |
| 2026-05-05 14:21 | 47.59215 | 7.53059 | 907 ft | 12 kts | 155° |
| 2026-05-05 14:21 | 47.59182 | 7.53160 | 907 ft | 12 kts | 85° |
| 2026-05-05 14:21 | 47.59148 | 7.53263 | 906 ft | 12 kts | 120° |
| 2026-05-05 14:22 | 47.59152 | 7.53336 | 907 ft | 7 kts | 77° |
| 2026-05-05 14:22 | 47.59163 | 7.53404 | 908 ft | 7 kts | 76° |
| 2026-05-05 14:22 | 47.59174 | 7.53477 | 908 ft | 8 kts | 77° |
| 2026-05-05 14:22 | 47.59190 | 7.53575 | 908 ft | 11 kts | 77° |
| 2026-05-05 14:23 | 47.59210 | 7.53702 | 908 ft | 14 kts | 76° |
| 2026-05-05 14:23 | 47.59235 | 7.53855 | 907 ft | 16 kts | 76° |
| 2026-05-05 14:23 | 47.59225 | 7.54000 | 904 ft | 14 kts | 122° |
| 2026-05-05 14:23 | 47.59195 | 7.54071 | 899 ft | 4 kts | 133° |
| 2026-05-05 14:24 | 47.59171 | 7.54072 | 899 ft | 4 kts | 207° |
| 2026-05-05 14:24 | 47.59163 | 7.54043 | 899 ft | 0 kts | 257° |
| 2026-05-05 14:25 | 47.59150 | 7.53956 | 900 ft | 38 kts | 257° |
| 2026-05-05 14:25 | 47.59028 | 7.53183 | 907 ft | 114 kts | 257° |
| 2026-05-05 14:25 | 47.58801 | 7.51725 | 984 ft | 170 kts | 257° |
| 2026-05-05 14:25 | 47.58551 | 7.50034 | 1889 ft | 164 kts | 257° |
| 2026-05-05 14:26 | 47.58302 | 7.48409 | 2937 ft | 158 kts | 253° |
| 2026-05-05 14:26 | 47.58030 | 7.46843 | 3723 ft | 163 kts | 254° |
| 2026-05-05 14:26 | 47.57761 | 7.45071 | 4093 ft | 186 kts | 254° |
| 2026-05-05 14:26 | 47.57459 | 7.43113 | 4382 ft | 208 kts | 254° |
| 2026-05-05 14:27 | 47.57109 | 7.40924 | 4621 ft | 227 kts | 254° |
| 2026-05-05 14:27 | 47.56743 | 7.38635 | 5168 ft | 231 kts | 254° |
| 2026-05-05 14:27 | 47.56375 | 7.36308 | 5845 ft | 232 kts | 254° |
| 2026-05-05 14:27 | 47.56066 | 7.33957 | 6576 ft | 233 kts | 256° |
| 2026-05-05 14:28 | 47.55774 | 7.31505 | 6984 ft | 253 kts | 257° |
| 2026-05-05 14:28 | 47.55470 | 7.28905 | 7675 ft | 260 kts | 257° |
| 2026-05-05 14:28 | 47.55161 | 7.26249 | 8401 ft | 264 kts | 257° |
| 2026-05-05 14:28 | 47.54851 | 7.23561 | 9170 ft | 266 kts | 257° |
| 2026-05-05 14:29 | 47.54545 | 7.20919 | 9896 ft | 270 kts | 257° |
| 2026-05-05 14:29 | 47.54216 | 7.18116 | 10268 ft | 287 kts | 257° |
| 2026-05-05 14:29 | 47.53857 | 7.15095 | 10435 ft | 309 kts | 257° |
| 2026-05-05 14:29 | 47.53471 | 7.11860 | 10687 ft | 327 kts | 257° |
| 2026-05-05 14:30 | 47.53071 | 7.08497 | 11235 ft | 334 kts | 258° |
| 2026-05-05 14:30 | 47.52672 | 7.05096 | 11929 ft | 337 kts | 260° |
| 2026-05-05 14:30 | 47.52701 | 7.01592 | 12608 ft | 347 kts | 278° |
| 2026-05-05 14:30 | 47.53490 | 6.98188 | 13329 ft | 356 kts | 294° |
| 2026-05-05 14:31 | 47.54713 | 6.94978 | 13982 ft | 360 kts | 297° |
| 2026-05-05 14:31 | 47.55997 | 6.91777 | 14538 ft | 364 kts | 297° |
| 2026-05-05 14:31 | 47.57309 | 6.88553 | 15078 ft | 368 kts | 297° |
| 2026-05-05 14:31 | 47.58641 | 6.85288 | 15632 ft | 372 kts | 297° |
| 2026-05-05 14:32 | 47.59983 | 6.81990 | 16197 ft | 375 kts | 297° |
| 2026-05-05 14:32 | 47.61326 | 6.78675 | 16760 ft | 378 kts | 297° |
| 2026-05-05 14:32 | 47.62684 | 6.75312 | 17288 ft | 382 kts | 297° |
| 2026-05-05 14:32 | 47.63605 | 6.73026 | 17642 ft | 384 kts | 297° |
| 2026-05-05 14:33 | 47.64982 | 6.69597 | 18166 ft | 388 kts | 297° |
| 2026-05-05 14:33 | 47.66362 | 6.66153 | 18628 ft | 391 kts | 297° |
| 2026-05-05 14:33 | 47.67759 | 6.62662 | 19066 ft | 395 kts | 297° |
| 2026-05-05 14:33 | 47.69167 | 6.59138 | 19522 ft | 399 kts | 297° |
| 2026-05-05 14:34 | 47.70588 | 6.55575 | 19951 ft | 403 kts | 297° |
| 2026-05-05 14:34 | 47.72019 | 6.51982 | 20400 ft | 406 kts | 297° |
| 2026-05-05 14:34 | 47.73461 | 6.48358 | 20828 ft | 410 kts | 297° |
| 2026-05-05 14:34 | 47.74918 | 6.44691 | 21254 ft | 414 kts | 297° |
| 2026-05-05 14:35 | 47.76386 | 6.40990 | 21653 ft | 417 kts | 297° |
| 2026-05-05 14:35 | 47.77861 | 6.37268 | 22062 ft | 420 kts | 297° |
| 2026-05-05 14:35 | 47.79349 | 6.33509 | 22480 ft | 423 kts | 297° |
| 2026-05-05 14:35 | 47.80843 | 6.29727 | 22898 ft | 426 kts | 297° |
| 2026-05-05 14:36 | 47.82350 | 6.25907 | 23322 ft | 430 kts | 297° |
| 2026-05-05 14:36 | 47.83869 | 6.22051 | 23691 ft | 433 kts | 297° |
| 2026-05-05 14:36 | 47.85395 | 6.18173 | 24050 ft | 436 kts | 297° |
| 2026-05-05 14:36 | 47.86930 | 6.14267 | 24433 ft | 437 kts | 298° |
| 2026-05-05 14:37 | 47.88470 | 6.10342 | 24805 ft | 440 kts | 298° |
| 2026-05-05 14:37 | 47.90014 | 6.06401 | 25129 ft | 442 kts | 298° |
| 2026-05-05 14:37 | 47.91568 | 6.02428 | 25438 ft | 444 kts | 298° |
| 2026-05-05 14:37 | 47.93125 | 5.98441 | 25736 ft | 447 kts | 298° |
| 2026-05-05 14:38 | 47.94692 | 5.94423 | 26037 ft | 449 kts | 298° |
| 2026-05-05 14:38 | 47.96262 | 5.90391 | 26321 ft | 451 kts | 298° |
| 2026-05-05 14:38 | 47.97842 | 5.86327 | 26602 ft | 454 kts | 298° |
| 2026-05-05 14:38 | 47.99429 | 5.82238 | 26877 ft | 456 kts | 298° |
| 2026-05-05 14:39 | 48.01019 | 5.78137 | 27169 ft | 458 kts | 298° |
| 2026-05-05 14:39 | 48.02613 | 5.74016 | 27455 ft | 460 kts | 298° |
| 2026-05-05 14:39 | 48.04218 | 5.69864 | 27733 ft | 462 kts | 298° |
| 2026-05-05 14:39 | 48.05828 | 5.65689 | 27982 ft | 464 kts | 298° |
| 2026-05-05 14:40 | 48.07441 | 5.61501 | 28246 ft | 466 kts | 298° |
| 2026-05-05 14:40 | 48.09064 | 5.57283 | 28478 ft | 468 kts | 298° |
| 2026-05-05 14:40 | 48.10688 | 5.53054 | 28729 ft | 470 kts | 298° |
| 2026-05-05 14:40 | 48.12318 | 5.48803 | 28965 ft | 472 kts | 298° |
| 2026-05-05 14:41 | 48.13957 | 5.44519 | 29193 ft | 474 kts | 298° |
| 2026-05-05 14:41 | 48.15594 | 5.40236 | 29541 ft | 473 kts | 298° |
| 2026-05-05 14:41 | 48.17224 | 5.35966 | 29906 ft | 472 kts | 298° |
| 2026-05-05 14:41 | 48.18852 | 5.31692 | 30201 ft | 472 kts | 298° |
| 2026-05-05 14:42 | 48.20473 | 5.27428 | 30475 ft | 471 kts | 298° |
| 2026-05-05 14:42 | 48.22095 | 5.23159 | 30767 ft | 470 kts | 298° |
| 2026-05-05 14:42 | 48.23712 | 5.18892 | 31056 ft | 470 kts | 298° |
| 2026-05-05 14:42 | 48.25300 | 5.14695 | 31347 ft | 469 kts | 298° |
| 2026-05-05 14:43 | 48.26910 | 5.10434 | 31634 ft | 469 kts | 298° |
| 2026-05-05 14:43 | 48.28534 | 5.06131 | 31935 ft | 468 kts | 298° |
| 2026-05-05 14:43 | 48.30114 | 5.01936 | 32232 ft | 467 kts | 298° |
| 2026-05-05 14:43 | 48.31732 | 4.97632 | 32517 ft | 466 kts | 298° |
| 2026-05-05 14:44 | 48.33323 | 4.93396 | 32789 ft | 466 kts | 298° |
| 2026-05-05 14:44 | 48.34892 | 4.89209 | 33087 ft | 465 kts | 298° |
| 2026-05-05 14:44 | 48.36473 | 4.84985 | 33385 ft | 464 kts | 298° |
| 2026-05-05 14:44 | 48.38053 | 4.80756 | 33656 ft | 463 kts | 298° |
| 2026-05-05 14:45 | 48.39649 | 4.76476 | 33804 ft | 465 kts | 298° |
| 2026-05-05 14:45 | 48.41237 | 4.72211 | 33793 ft | 467 kts | 298° |
| 2026-05-05 14:45 | 48.44373 | 4.63772 | 33787 ft | 463 kts | 298° |
| 2026-05-05 14:46 | 48.47502 | 4.55323 | 33794 ft | 461 kts | 298° |
| 2026-05-05 14:46 | 48.50614 | 4.46891 | 33789 ft | 460 kts | 298° |
| 2026-05-05 14:47 | 48.53720 | 4.38451 | 33800 ft | 460 kts | 298° |
| 2026-05-05 14:47 | 48.56814 | 4.30016 | 33814 ft | 461 kts | 297° |
| 2026-05-05 14:48 | 48.59921 | 4.21517 | 33805 ft | 462 kts | 298° |
| 2026-05-05 14:48 | 48.63024 | 4.13001 | 33811 ft | 464 kts | 297° |
| 2026-05-05 14:49 | 48.66133 | 4.04442 | 33792 ft | 465 kts | 297° |
| 2026-05-05 14:49 | 48.69240 | 3.95863 | 33804 ft | 465 kts | 297° |
| 2026-05-05 14:50 | 48.72741 | 3.87634 | 33801 ft | 467 kts | 310° |
| 2026-05-05 14:50 | 48.77601 | 3.81140 | 33804 ft | 467 kts | 324° |
| 2026-05-05 14:51 | 48.82925 | 3.75447 | 33802 ft | 468 kts | 325° |
| 2026-05-05 14:51 | 48.88257 | 3.69744 | 33802 ft | 469 kts | 324° |
| 2026-05-05 14:52 | 48.93565 | 3.63964 | 33797 ft | 470 kts | 324° |
| 2026-05-05 14:52 | 48.98850 | 3.58152 | 33794 ft | 467 kts | 324° |
| 2026-05-05 14:53 | 49.04093 | 3.52360 | 33784 ft | 464 kts | 324° |
| 2026-05-05 14:53 | 49.09302 | 3.46595 | 33804 ft | 461 kts | 324° |
| 2026-05-05 14:54 | 49.14476 | 3.40855 | 33796 ft | 459 kts | 324° |
| 2026-05-05 14:54 | 49.19622 | 3.35132 | 33805 ft | 457 kts | 324° |
| 2026-05-05 14:55 | 49.24761 | 3.29402 | 33815 ft | 457 kts | 323° |
| 2026-05-05 14:55 | 49.29878 | 3.23681 | 33816 ft | 459 kts | 323° |
| 2026-05-05 14:56 | 49.35052 | 3.17880 | 33799 ft | 463 kts | 323° |
| 2026-05-05 14:56 | 49.40253 | 3.12035 | 33810 ft | 464 kts | 323° |
| 2026-05-05 14:57 | 49.45463 | 3.06163 | 33821 ft | 465 kts | 323° |
| 2026-05-05 14:57 | 49.50678 | 3.00270 | 33827 ft | 465 kts | 323° |
| 2026-05-05 14:58 | 49.55890 | 2.94363 | 33826 ft | 465 kts | 323° |
| 2026-05-05 14:58 | 49.61098 | 2.88446 | 33827 ft | 465 kts | 323° |
| 2026-05-05 14:59 | 49.66295 | 2.82524 | 33832 ft | 464 kts | 323° |
| 2026-05-05 14:59 | 49.71485 | 2.76595 | 33853 ft | 463 kts | 323° |
| 2026-05-05 15:00 | 49.75790 | 2.71665 | 33844 ft | 464 kts | 323° |
| 2026-05-05 15:00 | 49.81873 | 2.64794 | 33845 ft | 462 kts | 323° |
| 2026-05-05 15:01 | 49.87099 | 2.59024 | 33848 ft | 460 kts | 324° |
| 2026-05-05 15:01 | 49.92300 | 2.53262 | 33854 ft | 459 kts | 323° |
| 2026-05-05 15:02 | 49.97474 | 2.47492 | 33856 ft | 457 kts | 323° |
| 2026-05-05 15:02 | 50.02638 | 2.41710 | 33856 ft | 457 kts | 323° |
| 2026-05-05 15:03 | 50.07784 | 2.35931 | 33850 ft | 456 kts | 323° |
| 2026-05-05 15:03 | 50.12922 | 2.30148 | 33857 ft | 455 kts | 323° |
| 2026-05-05 15:04 | 50.18054 | 2.24355 | 33860 ft | 455 kts | 323° |
| 2026-05-05 15:04 | 50.23183 | 2.18549 | 33873 ft | 456 kts | 323° |
| 2026-05-05 15:05 | 50.30845 | 2.09847 | 33873 ft | 456 kts | 323° |
| 2026-05-05 15:06 | 50.35972 | 2.04006 | 33881 ft | 456 kts | 323° |
| 2026-05-05 15:06 | 50.40912 | 1.97798 | 33892 ft | 455 kts | 317° |
| 2026-05-05 15:07 | 50.45648 | 1.91220 | 33889 ft | 455 kts | 317° |
| 2026-05-05 15:07 | 50.50394 | 1.84639 | 33891 ft | 455 kts | 317° |
| 2026-05-05 15:08 | 50.55157 | 1.78100 | 33886 ft | 455 kts | 317° |
| 2026-05-05 15:08 | 50.59923 | 1.71561 | 33884 ft | 455 kts | 317° |
| 2026-05-05 15:09 | 50.64681 | 1.65011 | 33885 ft | 454 kts | 317° |
| 2026-05-05 15:09 | 50.69432 | 1.58448 | 33892 ft | 453 kts | 317° |
| 2026-05-05 15:10 | 50.74166 | 1.51890 | 33904 ft | 452 kts | 317° |
| 2026-05-05 15:10 | 50.78907 | 1.45368 | 33904 ft | 452 kts | 319° |
| 2026-05-05 15:11 | 50.83844 | 1.39226 | 33922 ft | 451 kts | 321° |
| 2026-05-05 15:11 | 50.88834 | 1.33213 | 33931 ft | 450 kts | 321° |
| 2026-05-05 15:12 | 50.93801 | 1.27168 | 33933 ft | 449 kts | 320° |
| 2026-05-05 15:12 | 50.98734 | 1.21097 | 33942 ft | 448 kts | 320° |
| 2026-05-05 15:13 | 51.03648 | 1.15010 | 33938 ft | 448 kts | 320° |
| 2026-05-05 15:13 | 51.08551 | 1.08915 | 33942 ft | 447 kts | 320° |
| 2026-05-05 15:14 | 51.13451 | 1.02811 | 33941 ft | 447 kts | 320° |
| 2026-05-05 15:14 | 51.18349 | 0.96696 | 33943 ft | 447 kts | 320° |
| 2026-05-05 15:15 | 51.23242 | 0.90570 | 33942 ft | 447 kts | 320° |
| 2026-05-05 15:15 | 51.28129 | 0.84435 | 34000 ft | 447 kts | 320° |
| 2026-05-05 15:16 | 51.32185 | 0.79328 | 33955 ft | 446 kts | 320° |
| 2026-05-05 15:16 | 51.37060 | 0.73174 | 33958 ft | 446 kts | 320° |
| 2026-05-05 15:17 | 51.41920 | 0.67024 | 33962 ft | 445 kts | 320° |
| 2026-05-05 15:17 | 51.46767 | 0.60871 | 33967 ft | 444 kts | 319° |
| 2026-05-05 15:18 | 51.51606 | 0.54713 | 33963 ft | 443 kts | 319° |
| 2026-05-05 15:18 | 51.56426 | 0.48562 | 33964 ft | 442 kts | 319° |
| 2026-05-05 15:19 | 51.61236 | 0.42405 | 33961 ft | 441 kts | 319° |
| 2026-05-05 15:19 | 51.66030 | 0.36253 | 33955 ft | 441 kts | 319° |
| 2026-05-05 15:20 | 51.70822 | 0.30085 | 33958 ft | 440 kts | 319° |
| 2026-05-05 15:20 | 51.75601 | 0.23917 | 33964 ft | 440 kts | 319° |
| 2026-05-05 15:21 | 51.80386 | 0.17724 | 33971 ft | 441 kts | 319° |
| 2026-05-05 15:21 | 51.85167 | 0.11518 | 33966 ft | 441 kts | 318° |
| 2026-05-05 15:22 | 51.89950 | 0.05292 | 33969 ft | 442 kts | 318° |
| 2026-05-05 15:22 | 51.94758 | -0.00983 | 33966 ft | 444 kts | 318° |
| 2026-05-05 15:23 | 51.99571 | -0.07284 | 33966 ft | 446 kts | 318° |
| 2026-05-05 15:23 | 52.04400 | -0.13622 | 33959 ft | 447 kts | 318° |
| 2026-05-05 15:24 | 52.09241 | -0.19996 | 33958 ft | 449 kts | 318° |
| 2026-05-05 15:24 | 52.14093 | -0.26401 | 33956 ft | 450 kts | 318° |
| 2026-05-05 15:25 | 52.18952 | -0.32834 | 33966 ft | 450 kts | 318° |
| 2026-05-05 15:25 | 52.23812 | -0.39287 | 33960 ft | 451 kts | 318° |
| 2026-05-05 15:26 | 52.28667 | -0.45753 | 33961 ft | 450 kts | 318° |
| 2026-05-05 15:26 | 52.33509 | -0.52220 | 33956 ft | 449 kts | 318° |
| 2026-05-05 15:27 | 52.38302 | -0.58640 | 33954 ft | 447 kts | 318° |
| 2026-05-05 15:27 | 52.43095 | -0.65080 | 33960 ft | 444 kts | 318° |
| 2026-05-05 15:28 | 52.47860 | -0.71500 | 33959 ft | 442 kts | 318° |
| 2026-05-05 15:28 | 52.52598 | -0.77903 | 33960 ft | 441 kts | 318° |
| 2026-05-05 15:29 | 52.57322 | -0.84306 | 33970 ft | 439 kts | 318° |
| 2026-05-05 15:29 | 52.62028 | -0.90703 | 33965 ft | 439 kts | 318° |
| 2026-05-05 15:30 | 52.66728 | -0.97111 | 33990 ft | 439 kts | 319° |
| 2026-05-05 15:30 | 52.71428 | -1.03535 | 33986 ft | 439 kts | 319° |
| 2026-05-05 15:31 | 52.76069 | -1.10088 | 33992 ft | 439 kts | 316° |
| 2026-05-05 15:31 | 52.80500 | -1.17053 | 33995 ft | 440 kts | 315° |
| 2026-05-05 15:32 | 52.84903 | -1.24081 | 33996 ft | 440 kts | 315° |
| 2026-05-05 15:32 | 52.89332 | -1.31095 | 33993 ft | 441 kts | 315° |
| 2026-05-05 15:33 | 52.93776 | -1.38114 | 33996 ft | 442 kts | 315° |
| 2026-05-05 15:33 | 52.98222 | -1.45153 | 33996 ft | 442 kts | 316° |
| 2026-05-05 15:34 | 53.02670 | -1.52220 | 33995 ft | 442 kts | 316° |
| 2026-05-05 15:34 | 53.07076 | -1.59240 | 33993 ft | 442 kts | 316° |
| 2026-05-05 15:35 | 53.11511 | -1.66347 | 33992 ft | 442 kts | 316° |
| 2026-05-05 15:35 | 53.15929 | -1.73469 | 33997 ft | 442 kts | 315° |
| 2026-05-05 15:36 | 53.20343 | -1.80598 | 34005 ft | 442 kts | 315° |
| 2026-05-05 15:36 | 53.24408 | -1.88233 | 34007 ft | 440 kts | 302° |
| 2026-05-05 15:37 | 53.27223 | -1.97278 | 34018 ft | 439 kts | 295° |
| 2026-05-05 15:37 | 53.29869 | -2.06465 | 34016 ft | 438 kts | 295° |
| 2026-05-05 15:38 | 53.32566 | -2.15611 | 34019 ft | 438 kts | 295° |
| 2026-05-05 15:38 | 53.35265 | -2.24725 | 34018 ft | 437 kts | 295° |
| 2026-05-05 15:39 | 53.37358 | -2.34150 | 34025 ft | 434 kts | 287° |
| 2026-05-05 15:39 | 53.39137 | -2.43875 | 34020 ft | 434 kts | 286° |
| 2026-05-05 15:40 | 53.40923 | -2.53521 | 34021 ft | 433 kts | 286° |
| 2026-05-05 15:40 | 53.42733 | -2.63129 | 34046 ft | 432 kts | 286° |
| 2026-05-05 15:41 | 53.44529 | -2.72660 | 34052 ft | 431 kts | 286° |
| 2026-05-05 15:41 | 53.46324 | -2.82238 | 34043 ft | 430 kts | 286° |
| 2026-05-05 15:42 | 53.48106 | -2.91801 | 34048 ft | 429 kts | 286° |
| 2026-05-05 15:42 | 53.48989 | -2.96589 | 33944 ft | 430 kts | 286° |
| 2026-05-05 15:42 | 53.49864 | -3.01376 | 33582 ft | 426 kts | 286° |
| 2026-05-05 15:42 | 53.50728 | -3.06109 | 33134 ft | 421 kts | 285° |
| 2026-05-05 15:43 | 53.51576 | -3.10772 | 32736 ft | 416 kts | 285° |
| 2026-05-05 15:43 | 53.52417 | -3.15404 | 32309 ft | 412 kts | 285° |
| 2026-05-05 15:43 | 53.53247 | -3.19982 | 31883 ft | 408 kts | 285° |
| 2026-05-05 15:43 | 53.54071 | -3.24536 | 31457 ft | 405 kts | 285° |
| 2026-05-05 15:44 | 53.54886 | -3.29055 | 31050 ft | 402 kts | 285° |
| 2026-05-05 15:44 | 53.55692 | -3.33531 | 30643 ft | 399 kts | 285° |
| 2026-05-05 15:44 | 53.56493 | -3.37987 | 30244 ft | 396 kts | 285° |
| 2026-05-05 15:44 | 53.57286 | -3.42414 | 29789 ft | 393 kts | 285° |
| 2026-05-05 15:45 | 53.58070 | -3.46794 | 29397 ft | 388 kts | 285° |
| 2026-05-05 15:45 | 53.58847 | -3.51103 | 29084 ft | 382 kts | 285° |
| 2026-05-05 15:45 | 53.59615 | -3.55350 | 28691 ft | 378 kts | 285° |
| 2026-05-05 15:45 | 53.60375 | -3.59564 | 28284 ft | 374 kts | 285° |
| 2026-05-05 15:46 | 53.61125 | -3.63734 | 27885 ft | 371 kts | 285° |
| 2026-05-05 15:46 | 53.61899 | -3.67809 | 27489 ft | 369 kts | 288° |
| 2026-05-05 15:46 | 53.62819 | -3.71808 | 27120 ft | 365 kts | 290° |
| 2026-05-05 15:46 | 53.63787 | -3.75757 | 26714 ft | 363 kts | 290° |
| 2026-05-05 15:47 | 53.64752 | -3.79669 | 26321 ft | 361 kts | 290° |
| 2026-05-05 15:47 | 53.65384 | -3.82259 | 26065 ft | 359 kts | 290° |
| 2026-05-05 15:47 | 53.66637 | -3.87462 | 25540 ft | 357 kts | 289° |
| 2026-05-05 15:47 | 53.67556 | -3.91327 | 25153 ft | 355 kts | 289° |
| 2026-05-05 15:48 | 53.68471 | -3.95184 | 24772 ft | 353 kts | 289° |
| 2026-05-05 15:48 | 53.69393 | -3.99007 | 24396 ft | 351 kts | 290° |
| 2026-05-05 15:48 | 53.70320 | -4.02817 | 24025 ft | 350 kts | 290° |
| 2026-05-05 15:48 | 53.71216 | -4.06629 | 23640 ft | 348 kts | 286° |
| 2026-05-05 15:49 | 53.71791 | -4.10567 | 23190 ft | 345 kts | 276° |
| 2026-05-05 15:49 | 53.71990 | -4.14586 | 22774 ft | 342 kts | 272° |
| 2026-05-05 15:49 | 53.72121 | -4.18577 | 22375 ft | 340 kts | 272° |
| 2026-05-05 15:49 | 53.72243 | -4.22494 | 22004 ft | 337 kts | 272° |
| 2026-05-05 15:50 | 53.72372 | -4.26435 | 21624 ft | 335 kts | 272° |
| 2026-05-05 15:50 | 53.72507 | -4.30399 | 21239 ft | 333 kts | 272° |
| 2026-05-05 15:50 | 53.72643 | -4.34247 | 20870 ft | 332 kts | 273° |
| 2026-05-05 15:50 | 53.72780 | -4.38127 | 20503 ft | 330 kts | 273° |
| 2026-05-05 15:51 | 53.72916 | -4.41979 | 20136 ft | 328 kts | 273° |
| 2026-05-05 15:51 | 53.73050 | -4.45822 | 19767 ft | 327 kts | 273° |
| 2026-05-05 15:51 | 53.73184 | -4.49700 | 19374 ft | 327 kts | 273° |
| 2026-05-05 15:51 | 53.73316 | -4.53528 | 19000 ft | 326 kts | 273° |
| 2026-05-05 15:52 | 53.73446 | -4.57338 | 18636 ft | 325 kts | 273° |
| 2026-05-05 15:52 | 53.73573 | -4.61098 | 18273 ft | 324 kts | 273° |
| 2026-05-05 15:52 | 53.73701 | -4.64899 | 17860 ft | 323 kts | 273° |
| 2026-05-05 15:52 | 53.73827 | -4.68676 | 17476 ft | 322 kts | 273° |
| 2026-05-05 15:53 | 53.73952 | -4.72437 | 17116 ft | 319 kts | 273° |
| 2026-05-05 15:53 | 53.74074 | -4.76168 | 16756 ft | 318 kts | 273° |
| 2026-05-05 15:53 | 53.74194 | -4.79883 | 16396 ft | 316 kts | 273° |
| 2026-05-05 15:53 | 53.74312 | -4.83582 | 16041 ft | 314 kts | 274° |
| 2026-05-05 15:54 | 53.74349 | -4.87266 | 15680 ft | 314 kts | 264° |
| 2026-05-05 15:54 | 53.73816 | -4.90837 | 15244 ft | 316 kts | 250° |
| 2026-05-05 15:54 | 53.72856 | -4.94208 | 14804 ft | 319 kts | 244° |
| 2026-05-05 15:54 | 53.71808 | -4.97494 | 14492 ft | 317 kts | 243° |
| 2026-05-05 15:55 | 53.70751 | -5.00754 | 14149 ft | 316 kts | 243° |
| 2026-05-05 15:55 | 53.69698 | -5.03999 | 13781 ft | 315 kts | 243° |
| 2026-05-05 15:55 | 53.68650 | -5.07244 | 13392 ft | 314 kts | 244° |
| 2026-05-05 15:55 | 53.67611 | -5.10469 | 13032 ft | 313 kts | 244° |
| 2026-05-05 15:56 | 53.66577 | -5.13686 | 12687 ft | 311 kts | 244° |
| 2026-05-05 15:56 | 53.65548 | -5.16893 | 12309 ft | 310 kts | 244° |
| 2026-05-05 15:56 | 53.64528 | -5.20070 | 12076 ft | 305 kts | 244° |
| 2026-05-05 15:56 | 53.63532 | -5.23166 | 12001 ft | 295 kts | 244° |
| 2026-05-05 15:57 | 53.62568 | -5.26166 | 11912 ft | 287 kts | 244° |
| 2026-05-05 15:57 | 53.61630 | -5.29083 | 11735 ft | 281 kts | 244° |
| 2026-05-05 15:57 | 53.59902 | -5.34455 | 11235 ft | 279 kts | 244° |
| 2026-05-05 15:58 | 53.58976 | -5.37329 | 10952 ft | 279 kts | 244° |
| 2026-05-05 15:58 | 53.58058 | -5.40174 | 10618 ft | 276 kts | 243° |
| 2026-05-05 15:58 | 53.57138 | -5.43022 | 10207 ft | 277 kts | 244° |
| 2026-05-05 15:58 | 53.56216 | -5.45873 | 9819 ft | 277 kts | 243° |
| 2026-05-05 15:59 | 53.55300 | -5.48704 | 9443 ft | 275 kts | 243° |
| 2026-05-05 15:59 | 53.54398 | -5.51484 | 9072 ft | 274 kts | 243° |
| 2026-05-05 15:59 | 53.53478 | -5.54319 | 8698 ft | 272 kts | 243° |
| 2026-05-05 15:59 | 53.52584 | -5.57070 | 8334 ft | 271 kts | 243° |
| 2026-05-05 16:00 | 53.51684 | -5.59838 | 7975 ft | 270 kts | 243° |
| 2026-05-05 16:00 | 53.50785 | -5.62598 | 7628 ft | 268 kts | 243° |
| 2026-05-05 16:00 | 53.49891 | -5.65340 | 7288 ft | 267 kts | 243° |
| 2026-05-05 16:00 | 53.48990 | -5.68099 | 6943 ft | 265 kts | 243° |
| 2026-05-05 16:01 | 53.48106 | -5.70806 | 6586 ft | 264 kts | 244° |
| 2026-05-05 16:01 | 53.47218 | -5.73522 | 6199 ft | 264 kts | 244° |
| 2026-05-05 16:01 | 53.46339 | -5.76201 | 5924 ft | 260 kts | 244° |
| 2026-05-05 16:01 | 53.45473 | -5.78843 | 5592 ft | 258 kts | 244° |
| 2026-05-05 16:02 | 53.44618 | -5.81448 | 5407 ft | 250 kts | 244° |
| 2026-05-05 16:02 | 53.43792 | -5.83964 | 5227 ft | 243 kts | 244° |
| 2026-05-05 16:02 | 53.42994 | -5.86390 | 5097 ft | 233 kts | 244° |
| 2026-05-05 16:02 | 53.42223 | -5.88730 | 4924 ft | 227 kts | 245° |
| 2026-05-05 16:03 | 53.41470 | -5.91010 | 4729 ft | 222 kts | 245° |
| 2026-05-05 16:03 | 53.40724 | -5.93276 | 4421 ft | 222 kts | 245° |
| 2026-05-05 16:03 | 53.40305 | -5.95685 | 4071 ft | 215 kts | 277° |
| 2026-05-05 16:03 | 53.40389 | -5.96891 | 3916 ft | 213 kts | 282° |
| 2026-05-05 16:20 | 53.40574 | -5.99485 | 3572 ft | 212 kts | 279° |
| 2026-05-05 16:21 | 53.40848 | -6.04170 | 3125 ft | 198 kts | 279° |
| 2026-05-05 16:22 | 53.43204 | -6.08511 | 3009 ft | 190 kts | 5° |
| 2026-05-05 16:22 | 53.45832 | -6.07829 | 2997 ft | 191 kts | 13° |
| 2026-05-05 16:23 | 53.47386 | -6.04566 | 2991 ft | 198 kts | 86° |
| 2026-05-05 16:23 | 53.47286 | -6.02242 | 3013 ft | 203 kts | 93° |
| 2026-05-05 16:23 | 53.46968 | -5.97478 | 2996 ft | 205 kts | 93° |
| 2026-05-05 16:24 | 53.46801 | -5.95112 | 2982 ft | 203 kts | 94° |
| 2026-05-05 16:24 | 53.46633 | -5.92767 | 2989 ft | 202 kts | 94° |
| 2026-05-05 16:24 | 53.45768 | -5.88382 | 2995 ft | 208 kts | 137° |
| 2026-05-05 16:25 | 53.44455 | -5.87356 | 3002 ft | 212 kts | 174° |
| 2026-05-05 16:25 | 53.41696 | -5.88369 | 2987 ft | 202 kts | 225° |
| 2026-05-05 16:25 | 53.40930 | -5.90216 | 3000 ft | 194 kts | 254° |
| 2026-05-05 16:26 | 53.40460 | -5.94620 | 3006 ft | 192 kts | 274° |
| 2026-05-05 16:26 | 53.40642 | -5.99112 | 3004 ft | 193 kts | 278° |
| 2026-05-05 16:27 | 53.40755 | -6.01282 | 2978 ft | 180 kts | 278° |
| 2026-05-05 16:27 | 53.40837 | -6.02856 | 2875 ft | 172 kts | 278° |
| 2026-05-05 16:27 | 53.40910 | -6.04229 | 2718 ft | 168 kts | 278° |
| 2026-05-05 16:27 | 53.40968 | -6.05338 | 2591 ft | 164 kts | 278° |
| 2026-05-05 16:28 | 53.41069 | -6.07237 | 2403 ft | 163 kts | 278° |
| 2026-05-05 16:28 | 53.41171 | -6.09139 | 2159 ft | 165 kts | 278° |
| 2026-05-05 16:28 | 53.41271 | -6.11034 | 1954 ft | 159 kts | 277° |
| 2026-05-05 16:28 | 53.41366 | -6.12830 | 1746 ft | 153 kts | 278° |
| 2026-05-05 16:29 | 53.41460 | -6.14587 | 1513 ft | 147 kts | 278° |
| 2026-05-05 16:29 | 53.41551 | -6.16275 | 1302 ft | 144 kts | 277° |
| 2026-05-05 16:29 | 53.41642 | -6.17962 | 1097 ft | 147 kts | 277° |
| 2026-05-05 16:29 | 53.41735 | -6.19680 | 894 ft | 149 kts | 277° |
| 2026-05-05 16:30 | 53.41828 | -6.21411 | 667 ft | 149 kts | 277° |
| 2026-05-05 16:30 | 53.41919 | -6.23138 | 504 ft | 147 kts | 276° |
| 2026-05-05 16:30 | 53.42011 | -6.24819 | 273 ft | 142 kts | 277° |
| 2026-05-05 16:30 | 53.42103 | -6.26425 | 211 ft | 124 kts | 275° |
| 2026-05-05 16:31 | 53.42165 | -6.27581 | 212 ft | 71 kts | 276° |
| 2026-05-05 16:31 | 53.42265 | -6.28035 | 216 ft | 18 kts | 300° |
| 2026-05-05 16:31 | 53.42320 | -6.28130 | 210 ft | 11 kts | 351° |
| 2026-05-05 16:31 | 53.42362 | -6.28041 | 214 ft | 11 kts | 91° |
| 2026-05-05 16:32 | 53.42356 | -6.27915 | 210 ft | 11 kts | 95° |
| 2026-05-05 16:32 | 53.42349 | -6.27793 | 213 ft | 10 kts | 95° |
| 2026-05-05 16:32 | 53.42342 | -6.27675 | 210 ft | 10 kts | 95° |
| 2026-05-05 16:32 | 53.42336 | -6.27560 | 215 ft | 10 kts | 95° |
| 2026-05-05 16:33 | 53.42329 | -6.27435 | 210 ft | 12 kts | 95° |
| 2026-05-05 16:33 | 53.42320 | -6.27267 | 214 ft | 17 kts | 95° |
| 2026-05-05 16:33 | 53.42308 | -6.27051 | 218 ft | 20 kts | 95° |
| 2026-05-05 16:33 | 53.42294 | -6.26794 | 210 ft | 24 kts | 95° |
| 2026-05-05 16:34 | 53.42279 | -6.26518 | 216 ft | 23 kts | 95° |
| 2026-05-05 16:34 | 53.42264 | -6.26254 | 219 ft | 22 kts | 95° |
| 2026-05-05 16:34 | 53.42250 | -6.25997 | 220 ft | 22 kts | 95° |
| 2026-05-05 16:34 | 53.42236 | -6.25749 | 218 ft | 21 kts | 95° |
| 2026-05-05 16:35 | 53.42223 | -6.25511 | 214 ft | 18 kts | 95° |
| 2026-05-05 16:35 | 53.42216 | -6.25386 | 210 ft | 10 kts | 95° |
| 2026-05-05 16:35 | 53.42210 | -6.25277 | 217 ft | 9 kts | 96° |
| 2026-05-05 16:35 | 53.42204 | -6.25171 | 213 ft | 9 kts | 95° |
| 2026-05-05 16:36 | 53.42251 | -6.25149 | 217 ft | 9 kts | 336° |
| 2026-05-05 16:36 | 53.42317 | -6.25196 | 210 ft | 13 kts | 337° |
| 2026-05-05 16:36 | 53.42416 | -6.25268 | 213 ft | 18 kts | 336° |
| 2026-05-05 16:36 | 53.42547 | -6.25364 | 212 ft | 21 kts | 336° |
| 2026-05-05 16:37 | 53.42645 | -6.25316 | 210 ft | 16 kts | 45° |
| 2026-05-05 16:37 | 53.42720 | -6.25188 | 210 ft | 15 kts | 45° |
| 2026-05-05 16:37 | 53.42794 | -6.25070 | 210 ft | 14 kts | 36° |
| 2026-05-05 16:37 | 53.42865 | -6.24964 | 214 ft | 9 kts | 47° |
| 2026-05-05 16:38 | 53.42890 | -6.24920 | 210 ft | 5 kts | 47° |
| 2026-05-05 16:38 | 53.42918 | -6.24894 | 210 ft | 5 kts | 10° |
| 2026-05-05 16:38 | 53.42952 | -6.24887 | 215 ft | 5 kts | 6° |
| 2026-05-05 16:38 | 53.42984 | -6.24881 | 212 ft | 5 kts | 6° |
| 2026-05-05 16:39 | 53.43004 | -6.24878 | 210 ft | 0 kts | 5° |